Tofino Long Beach Airport

Current Flights

Info
Name: Tofino Long Beach Airport
Identifier:  YAZ/CYAZ
Local Time:  21. May 01:57
City
Flights per Day
3 flights
Distance: 189km (117mi)
Punctuality
91% (0 flights per day delayed)
Delay Average: 31 minutes
Current Weather
 14 C (Humidity: 62%)
  12kt (22km/h / 13mph) from 150°
18 knots Gusts

  Few clouds at 5,200 feet (1,584 meter)
  Scattered clouds at 16,000 feet (4,876 meter)
  Broken clouds at 17,000 feet (5,181 meter)
  24km (14 mi.)
 METAR CYAZ 210100Z 15012G18KT 15SM FEW052 SCT160 BKN170 14/07 A2972 RMK SC1AC3AC3 LAST STFD OBS/NEXT 211300UTC SLP066 DENSITY ALT 200FT

Current Delays

Departures
N/A
Arrivals
N/A

Destinations

Top Destinations
Airport Flights
per week
Seats
per week
  Vancouver (YVR) 21 - 3 0
  Vancouver (CXH) <1 - 0 0
  Vancouver (YDT) <1 - 0 0

Airlines & Planes

Top Airlines
Airline Flights
per Day
Seats
per Day
  Pacific Coastal Airlines 2 -
  North Cariboo Air <1 -
  Perimeter Aviation <1 -
  Wasaya Airways <1 -
  Flybe Nordic <1 -
Top Plane Types
Manufacturer Model Flights Seats
Beech 1900D 3.0/day - 0
Cessna C208 0.2/day - 0
Saab 340 0.2/day - 0
Cessna C182 0.0/day - 0